createdAt,value
2018-08-14T00:01:07.406Z,97646.09
2018-08-14T00:03:35.987Z,97646.63
2018-08-14T00:06:04.551Z,97644.44
2018-08-14T00:08:33.134Z,97645.23
2018-08-14T00:11:01.635Z,97634.78
2018-08-14T00:13:30.208Z,97631.37
2018-08-14T00:15:58.729Z,97635.47
2018-08-14T00:18:27.270Z,97635.25
2018-08-14T00:20:55.782Z,97629.55
2018-08-14T00:23:24.352Z,97629.25
2018-08-14T00:25:52.866Z,97626.73
2018-08-14T00:28:21.398Z,97628.97
2018-08-14T00:30:49.892Z,97625.31
2018-08-14T00:33:18.454Z,97619.93
2018-08-14T00:35:47.038Z,97619.49
2018-08-14T00:38:15.591Z,97616.05
2018-08-14T00:40:44.127Z,97620.67
2018-08-14T00:43:12.627Z,97625.70
2018-08-14T00:45:41.145Z,97623.37
2018-08-14T00:48:09.771Z,97617.95
2018-08-14T00:50:38.355Z,97621.30
2018-08-14T00:53:06.947Z,97620.69
2018-08-14T00:55:35.533Z,97621.53
2018-08-14T00:58:04.099Z,97622.25
2018-08-14T01:00:35.110Z,97626.55
2018-08-14T01:03:03.666Z,97627.59
2018-08-14T01:05:32.259Z,97628.19
2018-08-14T01:08:00.769Z,97632.13
2018-08-14T01:10:29.355Z,97627.47
2018-08-14T01:12:58.846Z,97629.98
2018-08-14T01:15:29.613Z,97637.05
2018-08-14T01:17:58.578Z,97633.06
2018-08-14T01:20:28.700Z,97628.89
2018-08-14T01:22:57.234Z,97634.08
2018-08-14T01:25:25.756Z,97632.50
2018-08-14T01:27:54.803Z,97630.72
2018-08-14T01:30:27.884Z,97633.73
2018-08-14T01:32:56.422Z,97640.52
2018-08-14T01:35:25.017Z,97629.38
2018-08-14T01:37:53.525Z,97633.77
2018-08-14T01:40:22.078Z,97624.58
2018-08-14T01:42:50.657Z,97633.25
2018-08-14T01:45:19.245Z,97629.14
2018-08-14T01:47:47.828Z,97628.30
2018-08-14T01:50:22.570Z,97626.27
2018-08-14T01:52:51.110Z,97626.09
2018-08-14T01:55:20.794Z,97633.94
2018-08-14T01:57:49.668Z,97635.11
2018-08-14T02:00:19.426Z,97637.71
2018-08-14T02:02:48.034Z,97645.56
2018-08-14T02:05:16.601Z,97641.46
2018-08-14T02:07:45.110Z,97640.65
2018-08-14T02:10:16.384Z,97638.52
2018-08-14T02:12:44.907Z,97636.41
2018-08-14T02:15:15.333Z,97641.52
2018-08-14T02:17:43.981Z,97649.38
2018-08-14T02:20:21.366Z,97635.83
2018-08-14T02:22:51.428Z,97641.47
2018-08-14T02:25:19.975Z,97639.11
2018-08-14T02:27:48.534Z,97639.39
2018-08-14T02:30:17.551Z,97644.70
2018-08-14T02:32:46.299Z,97642.41
2018-08-14T02:35:14.931Z,97644.81
2018-08-14T02:37:43.461Z,97643.22
2018-08-14T02:40:16.595Z,97645.35
2018-08-14T02:42:45.451Z,97637.36
2018-08-14T02:45:13.990Z,97635.53
2018-08-14T02:47:42.494Z,97638.04
2018-08-14T02:50:11.485Z,97638.34
2018-08-14T02:52:40.207Z,97640.19
2018-08-14T02:55:15.151Z,97640.76
2018-08-14T02:57:43.690Z,97641.03
2018-08-14T03:00:14.510Z,97643.94
2018-08-14T03:02:43.055Z,97653.90
2018-08-14T03:05:11.625Z,97657.84
2018-08-14T03:07:40.299Z,97658.12
2018-08-14T03:10:10.665Z,97659.71
2018-08-14T03:12:39.240Z,97661.06
2018-08-14T03:15:08.626Z,97659.84
2018-08-14T03:17:37.211Z,97645.67
2018-08-14T03:20:06.258Z,97658.06
2018-08-14T03:22:34.842Z,97664.60
2018-08-14T03:25:03.455Z,97665.14
2018-08-14T03:27:31.977Z,97673.53
2018-08-14T03:30:00.507Z,97677.58
2018-08-14T03:32:29.086Z,97683.16
2018-08-14T03:34:57.611Z,97688.09
2018-08-14T03:37:26.114Z,97686.14
2018-08-14T03:39:54.613Z,97681.39
2018-08-14T03:42:23.126Z,97683.60
2018-08-14T03:44:51.639Z,97679.85
2018-08-14T03:47:20.186Z,97676.61
2018-08-14T03:49:48.682Z,97672.47
2018-08-14T03:52:17.211Z,97678.33
2018-08-14T03:54:45.718Z,97691.00
2018-08-14T03:57:14.223Z,97688.94
2018-08-14T03:59:42.705Z,97695.45
2018-08-14T04:02:11.287Z,97692.65
2018-08-14T04:04:39.850Z,97691.50
2018-08-14T04:07:08.407Z,97696.70
2018-08-14T04:09:36.894Z,97697.05
2018-08-14T04:12:05.524Z,97696.70
2018-08-14T04:14:34.007Z,97694.48
2018-08-14T04:17:02.512Z,97697.58
2018-08-14T04:19:31.021Z,97701.72
2018-08-14T04:21:59.571Z,97708.47
2018-08-14T04:24:28.043Z,97703.51
2018-08-14T04:26:56.620Z,97708.05
2018-08-14T04:29:25.341Z,97716.92
2018-08-14T04:31:53.875Z,97714.42
2018-08-14T04:34:22.401Z,97721.73
2018-08-14T04:36:50.912Z,97713.69
2018-08-14T04:39:19.444Z,97722.60
2018-08-14T04:41:48.046Z,97721.73
2018-08-14T04:44:16.553Z,97724.44
2018-08-14T04:46:45.087Z,97724.96
2018-08-14T04:49:13.624Z,97736.86
2018-08-14T04:51:42.245Z,97736.23
2018-08-14T04:54:10.717Z,97740.19
2018-08-14T04:56:39.271Z,97735.86
2018-08-14T04:59:07.843Z,97737.41
2018-08-14T05:01:36.662Z,97738.94
2018-08-14T05:04:05.323Z,97745.52
2018-08-14T05:06:33.878Z,97754.28
2018-08-14T05:09:02.765Z,97751.47
2018-08-14T05:11:31.265Z,97758.41
2018-08-14T05:13:59.731Z,97764.30
2018-08-14T05:16:28.268Z,97763.69
2018-08-14T05:18:56.814Z,97769.61
2018-08-14T05:21:25.507Z,97762.30
2018-08-14T05:23:54.007Z,97767.04
2018-08-14T05:26:22.546Z,97769.52
2018-08-14T05:28:51.073Z,97774.16
2018-08-14T05:31:19.617Z,97775.47
2018-08-14T05:33:48.592Z,97775.47
2018-08-14T05:36:17.052Z,97779.67
2018-08-14T05:38:45.868Z,97782.47
2018-08-14T05:41:14.403Z,97779.59
2018-08-14T05:46:35.882Z,97788.41
2018-08-14T05:49:04.430Z,97789.45
2018-08-14T05:51:32.902Z,97795.52
2018-08-14T05:54:01.435Z,97799.42
2018-08-14T05:56:29.966Z,97803.14
2018-08-14T05:58:58.501Z,97807.41
2018-08-14T06:01:26.988Z,97811.12
2018-08-14T06:03:55.544Z,97808.08
2018-08-14T06:06:24.098Z,97823.37
2018-08-14T06:08:52.589Z,97823.00
2018-08-14T06:11:21.069Z,97826.58
2018-08-14T06:13:49.627Z,97828.05
2018-08-14T06:16:18.179Z,97825.42
2018-08-14T06:18:46.713Z,97826.26
2018-08-14T06:21:15.201Z,97827.27
2018-08-14T06:23:43.711Z,97824.47
2018-08-14T06:26:12.205Z,97827.69
2018-08-14T06:28:40.722Z,97824.46
2018-08-14T06:31:09.236Z,97829.13
2018-08-14T06:33:37.769Z,97833.39
2018-08-14T06:36:06.337Z,97832.19
2018-08-14T06:38:34.882Z,97834.72
2018-08-14T06:41:03.470Z,97829.73
2018-08-14T06:43:32.042Z,97830.75
2018-08-14T06:46:00.563Z,97840.45
2018-08-14T06:48:29.174Z,97832.38
2018-08-14T06:50:57.725Z,97836.88
2018-08-14T06:53:26.210Z,97836.72
2018-08-14T06:55:54.694Z,97838.38
2018-08-14T06:58:23.243Z,97836.00
2018-08-14T07:00:51.775Z,97837.05
2018-08-14T07:03:20.285Z,97837.87
2018-08-14T07:05:48.772Z,97835.37
2018-08-14T07:08:17.290Z,97851.28
2018-08-14T07:10:45.836Z,97851.23
2018-08-14T07:13:14.357Z,97853.11
2018-08-14T07:15:42.906Z,97858.59
2018-08-14T07:18:11.422Z,97853.16
2018-08-14T07:20:39.913Z,97861.35
2018-08-14T07:23:08.493Z,97862.30
2018-08-14T07:25:37.986Z,97866.87
2018-08-14T07:28:06.636Z,97862.86
2018-08-14T07:30:35.173Z,97866.75
2018-08-14T07:33:03.712Z,97859.84
2018-08-14T07:35:32.326Z,97865.23
2018-08-14T07:38:00.845Z,97870.55
2018-08-14T07:40:31.416Z,97871.34
2018-08-14T07:42:59.979Z,97879.48
2018-08-14T07:45:33.114Z,97877.37
2018-08-14T07:48:01.813Z,97885.55
2018-08-14T07:50:30.381Z,97890.61
2018-08-14T07:52:58.885Z,97887.40
2018-08-14T07:55:27.429Z,97888.39
2018-08-14T07:57:55.997Z,97882.37
2018-08-14T08:00:24.513Z,97873.83
2018-08-14T08:02:53.666Z,97886.48
2018-08-14T08:05:22.492Z,97896.66
2018-08-14T08:07:51.462Z,97902.36
2018-08-14T08:10:20.104Z,97893.65
2018-08-14T08:12:48.993Z,97898.45
2018-08-14T08:15:18.796Z,97894.67
2018-08-14T08:17:47.853Z,97890.48
2018-08-14T08:20:28.521Z,97893.15
2018-08-14T08:22:57.112Z,97898.25
2018-08-14T08:25:26.684Z,97900.82
2018-08-14T08:27:55.526Z,97896.80
2018-08-14T08:30:24.155Z,97899.42
2018-08-14T08:32:52.751Z,97899.94
2018-08-14T08:35:21.511Z,97900.06
2018-08-14T08:37:50.013Z,97901.32
2018-08-14T08:40:18.580Z,97906.41
2018-08-14T08:42:48.269Z,97907.09
2018-08-14T08:45:16.828Z,97899.31
2018-08-14T08:47:45.339Z,97905.73
2018-08-14T08:50:15.617Z,97893.58
2018-08-14T08:52:45.006Z,97892.23
2018-08-14T08:55:17.929Z,97886.72
2018-08-14T08:57:46.441Z,97883.44
2018-08-14T09:00:16.956Z,97888.09
2018-08-14T09:02:45.461Z,97884.77
2018-08-14T09:05:16.207Z,97883.11
2018-08-14T09:07:44.922Z,97888.02
2018-08-14T09:10:13.476Z,97887.83
2018-08-14T09:12:42.809Z,97886.87
2018-08-14T09:15:11.905Z,97878.34
2018-08-14T09:17:41.829Z,97877.38
2018-08-14T09:20:11.921Z,97880.00
2018-08-14T09:22:41.457Z,97885.52
2018-08-14T09:25:12.647Z,97877.47
2018-08-14T09:27:41.977Z,97869.31
2018-08-14T09:30:13.029Z,97879.73
2018-08-14T09:32:41.880Z,97872.05
2018-08-14T09:35:11.401Z,97872.31
2018-08-14T09:37:40.825Z,97884.05
2018-08-14T09:40:11.841Z,97878.37
2018-08-14T09:42:40.457Z,97880.64
2018-08-14T09:45:09.542Z,97877.28
2018-08-14T09:47:38.375Z,97882.53
2018-08-14T09:50:11.462Z,97877.09
2018-08-14T09:52:40.009Z,97870.41
2018-08-14T09:55:08.539Z,97875.05
2018-08-14T09:57:37.124Z,97871.80
2018-08-14T10:00:09.136Z,97870.44
2018-08-14T10:02:42.962Z,97888.80
2018-08-14T10:05:16.649Z,97879.39
2018-08-14T10:07:50.432Z,97873.27
2018-08-14T10:10:18.928Z,97869.19
2018-08-14T10:12:48.285Z,97872.81
2018-08-14T10:15:16.821Z,97874.76
2018-08-14T10:17:45.323Z,97876.97
2018-08-14T10:20:13.809Z,97869.61
2018-08-14T10:22:42.321Z,97870.62
2018-08-14T10:25:10.848Z,97875.41
2018-08-14T10:27:39.329Z,97873.19
2018-08-14T10:30:15.176Z,97875.31
2018-08-14T10:32:44.457Z,97877.56
2018-08-14T10:35:13.024Z,97865.80
2018-08-14T10:37:42.338Z,97878.03
2018-08-14T10:40:13.106Z,97873.66
2018-08-14T10:42:41.687Z,97879.14
2018-08-14T10:45:14.381Z,97875.30
2018-08-14T10:47:43.686Z,97876.74
2018-08-14T10:50:14.874Z,97884.93
2018-08-14T10:52:44.101Z,97879.95
2018-08-14T10:55:12.613Z,97876.19
2018-08-14T10:57:41.276Z,97879.73
2018-08-14T11:00:25.358Z,97877.53
2018-08-14T11:02:53.884Z,97885.38
2018-08-14T11:05:22.977Z,97884.89
2018-08-14T11:07:52.093Z,97874.97
2018-08-14T11:10:24.106Z,97876.73
2018-08-14T11:12:52.849Z,97883.27
2018-08-14T11:15:21.294Z,97879.95
2018-08-14T11:17:49.878Z,97873.92
2018-08-14T11:20:20.639Z,97883.02
2018-08-14T11:22:49.681Z,97892.78
2018-08-14T11:25:18.361Z,97886.82
2018-08-14T11:27:46.956Z,97892.34
2018-08-14T11:30:21.031Z,97891.73
2018-08-14T11:32:49.714Z,97887.86
2018-08-14T11:35:19.120Z,97887.91
2018-08-14T11:37:47.721Z,97895.33
2018-08-14T11:40:16.207Z,97888.93
2018-08-14T11:42:44.771Z,97885.81
2018-08-14T11:45:27.008Z,97892.11
2018-08-14T11:47:55.662Z,97887.13
2018-08-14T11:50:24.186Z,97884.91
2018-08-14T11:52:54.007Z,97881.98
2018-08-14T11:55:23.177Z,97880.06
2018-08-14T11:57:52.641Z,97894.91
2018-08-14T12:00:23.377Z,97895.63
2018-08-14T12:02:52.959Z,97895.47
2018-08-14T12:05:21.458Z,97899.06
2018-08-14T12:07:49.985Z,97893.13
2018-08-14T12:10:18.813Z,97891.38
2018-08-14T12:12:51.265Z,97889.92
2018-08-14T12:15:19.756Z,97893.44
2018-08-14T12:17:48.810Z,97901.34
2018-08-14T12:20:18.769Z,97903.80
2018-08-14T12:22:47.273Z,97894.10
2018-08-14T12:25:17.137Z,97888.31
2018-08-14T12:27:46.374Z,97890.85
2018-08-14T12:30:17.278Z,97884.88
2018-08-14T12:32:46.071Z,97878.90
2018-08-14T12:35:14.604Z,97871.30
2018-08-14T12:37:43.159Z,97882.48
2018-08-14T12:40:12.396Z,97877.42
2018-08-14T12:42:40.978Z,97879.39
2018-08-14T12:45:24.553Z,97882.53
2018-08-14T12:47:53.560Z,97881.81
2018-08-14T12:50:22.851Z,97881.72
2018-08-14T12:52:51.376Z,97887.81
2018-08-14T12:55:19.893Z,97882.20
2018-08-14T12:57:48.793Z,97893.31
2018-08-14T13:00:22.137Z,97888.98
2018-08-14T13:02:51.469Z,97879.27
2018-08-14T13:05:20.348Z,97878.84
2018-08-14T13:07:48.881Z,97876.30
2018-08-14T13:10:17.402Z,97880.44
2018-08-14T13:12:45.925Z,97871.48
2018-08-14T13:15:15.064Z,97873.11
2018-08-14T13:17:59.661Z,97875.20
2018-08-14T13:20:28.156Z,97866.57
2018-08-14T13:22:56.800Z,97861.90
2018-08-14T13:25:25.324Z,97864.25
2018-08-14T13:27:54.162Z,97858.39
2018-08-14T13:30:22.949Z,97865.23
2018-08-14T13:32:51.790Z,97876.27
2018-08-14T13:35:20.304Z,97865.23
2018-08-14T13:37:48.845Z,97857.27
2018-08-14T13:40:17.460Z,97863.73
2018-08-14T13:42:45.849Z,97869.55
2018-08-14T13:45:14.382Z,97862.92
2018-08-14T13:47:43.433Z,97856.63
2018-08-14T13:50:12.800Z,97863.30
2018-08-14T13:52:41.455Z,97862.86
2018-08-14T13:55:12.015Z,97857.76
2018-08-14T13:57:40.814Z,97857.25
2018-08-14T14:00:11.593Z,97858.47
2018-08-14T14:02:40.658Z,97850.48
2018-08-14T14:05:09.248Z,97858.66
2018-08-14T14:07:40.099Z,97855.34
2018-08-14T14:10:11.150Z,97848.42
2018-08-14T14:12:39.724Z,97856.91
2018-08-14T14:15:24.076Z,97853.33
2018-08-14T14:17:53.662Z,97859.02
2018-08-14T14:20:27.071Z,97857.28
2018-08-14T14:22:55.760Z,97853.46
2018-08-14T14:25:24.346Z,97848.96
2018-08-14T14:27:52.953Z,97845.30
2018-08-14T14:30:21.587Z,97848.73
2018-08-14T14:32:50.233Z,97846.52
2018-08-14T14:35:18.811Z,97850.50
2018-08-14T14:37:49.474Z,97861.24
2018-08-14T14:40:21.762Z,97849.20
2018-08-14T14:42:51.872Z,97851.75
2018-08-14T14:45:20.521Z,97852.33
2018-08-14T14:47:49.101Z,97856.66
2018-08-14T14:50:17.706Z,97847.03
2018-08-14T14:52:46.527Z,97854.95
2018-08-14T14:55:18.188Z,97851.85
2018-08-14T14:57:47.179Z,97860.19
2018-08-14T15:00:19.309Z,97867.66
2018-08-14T15:02:49.249Z,97874.17
2018-08-14T15:05:17.983Z,97872.59
2018-08-14T15:07:47.893Z,97873.09
2018-08-14T15:10:16.510Z,97874.72
2018-08-14T15:12:45.493Z,97869.30
2018-08-14T15:15:14.312Z,97874.80
2018-08-14T15:17:43.535Z,97882.61
2018-08-14T15:20:16.508Z,97868.09
2018-08-14T15:22:45.868Z,97863.73
2018-08-14T15:25:17.765Z,97875.86
2018-08-14T15:28:59.919Z,97880.90
2018-08-14T15:31:28.981Z,97882.27
2018-08-14T15:33:57.959Z,97887.38
2018-08-14T15:36:28.536Z,97872.38
2018-08-14T15:38:58.643Z,97879.75
2018-08-14T15:41:27.780Z,97873.38
2018-08-14T15:43:56.519Z,97872.00
2018-08-14T15:46:25.245Z,97871.02
2018-08-14T15:48:53.888Z,97872.67
2018-08-14T15:51:22.561Z,97873.35
2018-08-14T15:53:51.558Z,97864.11
2018-08-14T15:56:20.297Z,97875.34
2018-08-14T15:58:48.905Z,97872.95
2018-08-14T16:01:17.686Z,97870.28
2018-08-14T16:03:46.344Z,97870.66
2018-08-14T16:06:15.032Z,97872.47
2018-08-14T16:08:43.598Z,97878.95
2018-08-14T16:11:12.238Z,97877.73
2018-08-14T16:13:40.962Z,97874.57
2018-08-14T16:16:09.649Z,97888.27
2018-08-14T16:18:38.170Z,97883.58
2018-08-14T16:21:07.848Z,97886.94
2018-08-14T16:23:36.364Z,97890.48
2018-08-14T16:26:07.109Z,97883.92
2018-08-14T16:28:35.700Z,97882.00
2018-08-14T16:31:04.281Z,97887.19
2018-08-14T16:33:32.969Z,97895.22
2018-08-14T16:36:01.516Z,97891.99
2018-08-14T16:38:30.189Z,97883.41
2018-08-14T16:40:58.880Z,97894.25
2018-08-14T16:43:27.401Z,97893.44
2018-08-14T16:45:56.015Z,97897.22
2018-08-14T16:48:24.565Z,97896.66
2018-08-14T16:50:53.106Z,97908.28
2018-08-14T16:53:23.746Z,97904.20
2018-08-14T16:55:52.261Z,97900.59
2018-08-14T16:58:23.000Z,97902.33
2018-08-14T17:00:51.605Z,97898.52
2018-08-14T17:03:20.441Z,97901.49
2018-08-14T17:05:53.224Z,97900.92
2018-08-14T17:08:21.716Z,97899.55
2018-08-14T17:10:50.730Z,97903.61
2018-08-14T17:13:19.531Z,97902.23
2018-08-14T17:15:48.092Z,97902.48
2018-08-14T17:18:16.663Z,97915.70
2018-08-14T17:20:44.007Z,97916.28
2018-08-14T17:23:12.484Z,97920.83
2018-08-14T17:25:40.977Z,97920.48
2018-08-14T17:28:09.492Z,97922.97
2018-08-14T17:30:38.066Z,97927.26
2018-08-14T17:33:06.608Z,97917.70
2018-08-14T17:35:35.216Z,97929.88
2018-08-14T17:38:03.718Z,97939.05
2018-08-14T17:40:32.201Z,97940.51
2018-08-14T17:43:00.713Z,97933.37
2018-08-14T17:45:32.029Z,97945.81
2018-08-14T17:48:02.080Z,97947.56
2018-08-14T17:50:31.154Z,97959.94
2018-08-14T17:52:59.809Z,97958.71
2018-08-14T17:55:28.790Z,97966.83
2018-08-14T17:57:57.561Z,97970.90
2018-08-14T18:00:29.957Z,97979.36
2018-08-14T18:03:01.898Z,97983.38
2018-08-14T18:05:30.452Z,97988.52
2018-08-14T18:07:59.028Z,97990.46
2018-08-14T18:10:27.805Z,97994.20
2018-08-14T18:12:56.393Z,97993.22
2018-08-14T18:15:24.921Z,97993.09
2018-08-14T18:17:53.464Z,98008.92
2018-08-14T18:20:23.266Z,98007.94
2018-08-14T18:22:51.933Z,98012.67
2018-08-14T18:25:21.628Z,98021.33
2018-08-14T18:27:50.657Z,98020.14
2018-08-14T18:30:20.128Z,98029.11
2018-08-14T18:32:48.737Z,98023.88
2018-08-14T18:35:17.609Z,98025.20
2018-08-14T18:37:46.525Z,98026.30
2018-08-14T18:40:17.009Z,98035.05
2018-08-14T18:42:45.842Z,98044.91
2018-08-14T18:45:16.329Z,98041.20
2018-08-14T18:47:44.953Z,98046.67
2018-08-14T18:50:14.646Z,98049.93
2018-08-14T18:52:43.425Z,98052.65
2018-08-14T18:55:14.098Z,98056.42
2018-08-14T18:57:43.417Z,98060.50
2018-08-14T19:00:19.639Z,98063.52
2018-08-14T19:02:49.491Z,98072.63
2018-08-14T19:05:18.104Z,98079.25
2018-08-14T19:07:46.746Z,98080.37
2018-08-14T19:10:16.451Z,98092.45
2018-08-14T19:12:45.999Z,98093.48
2018-08-14T19:15:19.690Z,98091.61
2018-08-14T19:20:15.757Z,98092.58
2018-08-14T19:22:44.516Z,98100.73
2018-08-14T19:25:13.167Z,98097.56
2018-08-14T19:27:42.532Z,98104.48
2018-08-14T19:30:12.530Z,98099.80
2018-08-14T19:32:41.513Z,98109.79
2018-08-14T19:35:11.453Z,98112.45
2018-08-14T19:37:40.211Z,98112.00
2018-08-14T19:40:17.868Z,98113.69
2018-08-14T19:42:46.893Z,98123.05
2018-08-14T19:45:15.393Z,98117.64
2018-08-14T19:47:43.994Z,98119.69
2018-08-14T19:50:13.909Z,98122.22
2018-08-14T19:52:42.477Z,98124.04
2018-08-14T19:55:14.598Z,98118.91
2018-08-14T19:57:44.669Z,98127.27
2018-08-14T20:00:14.606Z,98120.11
2018-08-14T20:02:44.060Z,98117.94
2018-08-14T20:05:14.406Z,98125.19
2018-08-14T20:07:43.176Z,98126.60
2018-08-14T20:10:12.933Z,98126.93
2018-08-14T20:12:42.018Z,98131.33
2018-08-14T20:15:12.308Z,98136.22
2018-08-14T20:17:40.969Z,98131.52
2018-08-14T20:20:12.177Z,98135.92
2018-08-14T20:22:40.698Z,98130.96
2018-08-14T20:25:09.294Z,98135.41
2018-08-14T20:27:37.856Z,98132.05
2018-08-14T20:30:09.260Z,98130.17
2018-08-14T20:32:38.050Z,98135.38
2018-08-14T20:35:07.904Z,98134.45
2018-08-14T20:37:36.453Z,98142.53
2018-08-14T20:40:07.541Z,98145.98
2018-08-14T20:42:36.141Z,98143.44
2018-08-14T20:45:05.402Z,98142.17
2018-08-14T20:47:33.905Z,98140.14
2018-08-14T20:50:02.415Z,98140.29
2018-08-14T20:52:30.919Z,98137.51
2018-08-14T20:54:59.473Z,98142.61
2018-08-14T20:57:28.001Z,98144.23
2018-08-14T20:59:56.513Z,98145.07
2018-08-14T21:02:25.021Z,98139.11
2018-08-14T21:04:53.601Z,98141.02
2018-08-14T21:07:22.117Z,98140.22
2018-08-14T21:09:50.660Z,98141.92
2018-08-14T21:12:26.785Z,98134.09
2018-08-14T21:14:55.642Z,98139.46
2018-08-14T21:17:24.206Z,98141.59
2018-08-14T21:19:52.794Z,98146.78
2018-08-14T21:22:21.329Z,98143.05
2018-08-14T21:24:49.913Z,98138.81
2018-08-14T21:27:18.470Z,98144.23
2018-08-14T21:29:47.062Z,98143.41
2018-08-14T21:32:15.556Z,98146.12
2018-08-14T21:34:44.089Z,98153.44
2018-08-14T21:37:12.590Z,98145.89
2018-08-14T21:39:41.123Z,98154.02
2018-08-14T21:42:09.688Z,98156.49
2018-08-14T21:44:38.196Z,98153.78
2018-08-14T21:47:06.752Z,98161.55
2018-08-14T21:49:35.237Z,98153.23
2018-08-14T21:52:03.926Z,98162.30
2018-08-14T21:54:32.461Z,98168.21
2018-08-14T21:57:01.025Z,98163.86
2018-08-14T21:59:29.525Z,98170.69
2018-08-14T22:01:58.132Z,98164.79
2018-08-14T22:04:26.658Z,98167.15
2018-08-14T22:06:55.222Z,98161.09
2018-08-14T22:09:23.713Z,98167.10
2018-08-14T22:11:52.269Z,98169.04
2018-08-14T22:14:20.797Z,98169.63
2018-08-14T22:16:49.417Z,98176.92
2018-08-14T22:19:17.929Z,98171.21
2018-08-14T22:21:46.503Z,98171.98
2018-08-14T22:24:14.988Z,98177.50
2018-08-14T22:26:43.525Z,98179.39
2018-08-14T22:29:12.038Z,98178.09
2018-08-14T22:31:40.622Z,98180.55
2018-08-14T22:34:09.113Z,98178.42
2018-08-14T22:36:37.647Z,98180.66
2018-08-14T22:39:07.793Z,98176.06
2018-08-14T22:41:36.576Z,98176.11
2018-08-14T22:44:05.136Z,98175.09
2018-08-14T22:46:33.866Z,98173.21
2018-08-14T22:49:02.349Z,98177.61
2018-08-14T22:51:30.914Z,98172.52
2018-08-14T22:53:59.436Z,98173.38
2018-08-14T22:56:27.959Z,98171.81
2018-08-14T22:58:56.476Z,98173.73
2018-08-14T23:01:25.027Z,98172.38
2018-08-14T23:03:54.422Z,98172.41
2018-08-14T23:06:22.981Z,98183.30
2018-08-14T23:08:51.514Z,98186.26
2018-08-14T23:11:20.063Z,98183.89
2018-08-14T23:13:48.606Z,98183.08
2018-08-14T23:16:17.141Z,98196.59
2018-08-14T23:18:45.657Z,98188.51
2018-08-14T23:21:14.205Z,98190.95
2018-08-14T23:23:42.713Z,98190.19
2018-08-14T23:26:11.335Z,98191.53
2018-08-14T23:28:39.837Z,98192.07
2018-08-14T23:31:08.405Z,98193.72
2018-08-14T23:33:36.937Z,98195.07
2018-08-14T23:36:05.505Z,98202.13
2018-08-14T23:38:34.056Z,98203.77
2018-08-14T23:41:02.551Z,98207.25
2018-08-14T23:43:31.062Z,98197.80
2018-08-14T23:45:59.591Z,98208.88
2018-08-14T23:48:28.121Z,98204.06
2018-08-14T23:50:56.636Z,98204.33
2018-08-14T23:53:25.206Z,98211.38
2018-08-14T23:55:53.766Z,98208.42
2018-08-14T23:58:22.284Z,98207.35
